Live aus Altenrhein
LIVE
LSZR 192220Z AUTO VRB02KT 9999 BKN042CB 16/14 Q1023 RETS

People´s Info Center:

Öffnungszeiten Mo-Fr, 8-18 Uhr

 

info@peoples.ch

 
Aus Österreich:

T: +43 (0)5572 203 610

 

Aus CH / LI / DE:

T: +41 (0)71 858 51 60

 

Aktueller Timetable / Live Flugstatus

Flughafen St.Gallen-Altenrhein.


Ankünfte in St. Gallen-Altenrhein
Zeit #flightinfo:label:est# von Flug Info
10:00 10:00 Wien PE121
planmässig
15:20 15:20 Palma PE501
planmässig
18:20 18:20 Ibiza PE505
planmässig
20:00 20:00 Wien PE125
planmässig

Shuttlebus online buchen

Altenrhein - Vorarlberg ->hier buchen

 

Abflüge von St. Gallen-Altenrhein
Zeit #flightinfo:label:est# nach Flug Info
10:40 10:40 Palma PE500
planmässig
13:30 13:30 Ibiza PE504
planmässig
17:20 17:20 Wien PE124
planmässig

People's Info Center

T. +43 (0)5572 203 610

T. +41 (0)71 858 51 60